ITY682 LIRF-SAEZ
Flight info
| Callsign | ITY682 |
|---|---|
| Flight time | N/A |
| Altitude | 33000 |
| Route | ESINO M126 QUENN DCT CAR DCT DOPEL UG729 KAWKA UG14 CSO UG859 GHA UG864 BRENA UA854 ARDAR UR975 ANITI UA302 TURUP DCT SEROD DCT KODOS UL206 VRI UZ44 ADA UM400 BITAK UN857 NELOX UM534 DADUT UN741 PAPIX PAPIX6B |
| Aircraft | A359/H-SDE2E3GHIJ3J4J5LM1ORWXY/LB1D1 |
Departure
| Time | 2026-05-08 08:52 |
|---|---|
| Airport | Rome–Fiumicino Leonardo da Vinci International Airport (LIRF) |
Arrival
| Time | N/A |
|---|---|
| Airport | Ezeiza International Airport - Ministro Pistarini (SAEZ) |
| Time | Latitude | Longitude | Altitude | Speed | Heading |
|---|---|---|---|---|---|
| 2026-05-08 08:25 | 41.79864 | 12.24744 | 20 ft | 0 kts | 205° |
| 2026-05-08 08:40 | 41.79870 | 12.24748 | 25 ft | 4 kts | 205° |
| 2026-05-08 08:40 | 41.79895 | 12.24764 | 23 ft | 4 kts | 205° |
| 2026-05-08 08:41 | 41.79918 | 12.24778 | 22 ft | 2 kts | 204° |
| 2026-05-08 08:41 | 41.79938 | 12.24791 | 20 ft | 4 kts | 205° |
| 2026-05-08 08:41 | 41.79962 | 12.24797 | 21 ft | 4 kts | 160° |
| 2026-05-08 08:41 | 41.79983 | 12.24782 | 21 ft | 4 kts | 122° |
| 2026-05-08 08:42 | 41.79988 | 12.24751 | 22 ft | 4 kts | 75° |
| 2026-05-08 08:42 | 41.79978 | 12.24717 | 21 ft | 4 kts | 66° |
| 2026-05-08 08:42 | 41.79974 | 12.24704 | 21 ft | 5 kts | 70° |
| 2026-05-08 08:45 | 41.79978 | 12.24717 | 21 ft | 5 kts | 69° |
| 2026-05-08 08:45 | 41.80020 | 12.24775 | 23 ft | 13 kts | 17° |
| 2026-05-08 08:45 | 41.80053 | 12.24678 | 23 ft | 18 kts | 254° |
| 2026-05-08 08:46 | 41.80003 | 12.24493 | 22 ft | 24 kts | 250° |
| 2026-05-08 08:46 | 41.79945 | 12.24281 | 22 ft | 24 kts | 250° |
| 2026-05-08 08:46 | 41.79916 | 12.24068 | 23 ft | 23 kts | 261° |
| 2026-05-08 08:46 | 41.79867 | 12.23868 | 24 ft | 22 kts | 249° |
| 2026-05-08 08:47 | 41.79839 | 12.23739 | 24 ft | 13 kts | 275° |
| 2026-05-08 08:47 | 41.79901 | 12.23664 | 25 ft | 13 kts | 338° |
| 2026-05-08 08:47 | 41.79998 | 12.23616 | 26 ft | 16 kts | 342° |
| 2026-05-08 08:47 | 41.80113 | 12.23568 | 22 ft | 20 kts | 342° |
| 2026-05-08 08:48 | 41.80260 | 12.23507 | 23 ft | 25 kts | 342° |
| 2026-05-08 08:48 | 41.80446 | 12.23429 | 24 ft | 31 kts | 342° |
| 2026-05-08 08:48 | 41.80650 | 12.23343 | 24 ft | 30 kts | 342° |
| 2026-05-08 08:48 | 41.80849 | 12.23260 | 26 ft | 30 kts | 342° |
| 2026-05-08 08:49 | 41.81049 | 12.23176 | 25 ft | 30 kts | 342° |
| 2026-05-08 08:49 | 41.81246 | 12.23094 | 23 ft | 30 kts | 342° |
| 2026-05-08 08:49 | 41.81386 | 12.23035 | 24 ft | 13 kts | 342° |
| 2026-05-08 08:49 | 41.81474 | 12.22996 | 24 ft | 13 kts | 334° |
| 2026-05-08 08:50 | 41.81529 | 12.22897 | 23 ft | 14 kts | 297° |
| 2026-05-08 08:50 | 41.81561 | 12.22775 | 21 ft | 14 kts | 269° |
| 2026-05-08 08:50 | 41.81507 | 12.22674 | 23 ft | 14 kts | 197° |
| 2026-05-08 08:50 | 41.81420 | 12.22695 | 22 ft | 8 kts | 163° |
| 2026-05-08 08:51 | 41.81418 | 12.22696 | 22 ft | 0 kts | 163° |
| 2026-05-08 08:51 | 41.81247 | 12.22766 | 24 ft | 57 kts | 162° |
| 2026-05-08 08:51 | 41.80678 | 12.23005 | 23 ft | 114 kts | 163° |
| 2026-05-08 08:51 | 41.79752 | 12.23392 | 22 ft | 163 kts | 163° |
| 2026-05-08 08:52 | 41.78556 | 12.23896 | 246 ft | 188 kts | 162° |
| 2026-05-08 08:52 | 41.77345 | 12.24399 | 1056 ft | 175 kts | 165° |
| 2026-05-08 08:52 | 41.76114 | 12.24570 | 1635 ft | 187 kts | 186° |
| 2026-05-08 08:52 | 41.74926 | 12.23730 | 1750 ft | 209 kts | 226° |
| 2026-05-08 08:53 | 41.74056 | 12.22080 | 1952 ft | 227 kts | 227° |
| 2026-05-08 08:53 | 41.72895 | 12.20558 | 2182 ft | 241 kts | 217° |
| 2026-05-08 08:53 | 41.71611 | 12.19072 | 2662 ft | 246 kts | 220° |
| 2026-05-08 08:53 | 41.70330 | 12.17517 | 3249 ft | 251 kts | 221° |
| 2026-05-08 08:54 | 41.69029 | 12.15934 | 3769 ft | 254 kts | 221° |
| 2026-05-08 08:54 | 41.67712 | 12.14341 | 4272 ft | 257 kts | 221° |
| 2026-05-08 08:54 | 41.66372 | 12.12727 | 4721 ft | 261 kts | 222° |
| 2026-05-08 08:54 | 41.65014 | 12.11094 | 5179 ft | 266 kts | 222° |
| 2026-05-08 08:55 | 41.64097 | 12.09994 | 5434 ft | 269 kts | 222° |
| 2026-05-08 08:55 | 41.62689 | 12.08306 | 5900 ft | 274 kts | 222° |
| 2026-05-08 08:55 | 41.61257 | 12.06591 | 6314 ft | 279 kts | 222° |
| 2026-05-08 08:55 | 41.59795 | 12.04842 | 6702 ft | 285 kts | 222° |
| 2026-05-08 08:56 | 41.58308 | 12.03067 | 7215 ft | 285 kts | 222° |
| 2026-05-08 08:56 | 41.56824 | 12.01294 | 7734 ft | 287 kts | 221° |
| 2026-05-08 08:56 | 41.55344 | 11.99528 | 8264 ft | 290 kts | 221° |
| 2026-05-08 08:56 | 41.53827 | 11.97719 | 8794 ft | 294 kts | 221° |
| 2026-05-08 08:57 | 41.52291 | 11.95889 | 9357 ft | 297 kts | 221° |
| 2026-05-08 08:57 | 41.50741 | 11.94044 | 9861 ft | 301 kts | 221° |
| 2026-05-08 08:57 | 41.49159 | 11.92161 | 10213 ft | 309 kts | 221° |
| 2026-05-08 08:57 | 41.47516 | 11.90210 | 10408 ft | 322 kts | 220° |
| 2026-05-08 08:58 | 41.45812 | 11.88185 | 10610 ft | 335 kts | 220° |
| 2026-05-08 08:58 | 41.44034 | 11.86075 | 10807 ft | 348 kts | 220° |
| 2026-05-08 08:58 | 41.42196 | 11.83895 | 10997 ft | 359 kts | 220° |
| 2026-05-08 08:58 | 41.40297 | 11.81644 | 11183 ft | 371 kts | 220° |
| 2026-05-08 08:59 | 41.38333 | 11.79338 | 11381 ft | 381 kts | 219° |
| 2026-05-08 08:59 | 41.36294 | 11.77082 | 11575 ft | 390 kts | 217° |
| 2026-05-08 08:59 | 41.34150 | 11.74813 | 11880 ft | 395 kts | 216° |
| 2026-05-08 08:59 | 41.31971 | 11.72551 | 12289 ft | 398 kts | 216° |
| 2026-05-08 09:00 | 41.29774 | 11.70283 | 12715 ft | 400 kts | 216° |
| 2026-05-08 09:00 | 41.27576 | 11.68009 | 13127 ft | 401 kts | 216° |
| 2026-05-08 09:00 | 41.25379 | 11.65727 | 13656 ft | 400 kts | 216° |
| 2026-05-08 09:00 | 41.23190 | 11.63445 | 14086 ft | 400 kts | 216° |
| 2026-05-08 09:01 | 41.21012 | 11.61171 | 14423 ft | 402 kts | 216° |
| 2026-05-08 09:01 | 41.18811 | 11.58874 | 14764 ft | 404 kts | 216° |
| 2026-05-08 09:01 | 41.16605 | 11.56571 | 15287 ft | 401 kts | 217° |
| 2026-05-08 09:01 | 41.14420 | 11.54291 | 15748 ft | 400 kts | 217° |
| 2026-05-08 09:02 | 41.12225 | 11.52001 | 16146 ft | 400 kts | 217° |
| 2026-05-08 09:02 | 41.10025 | 11.49711 | 16389 ft | 405 kts | 218° |
| 2026-05-08 09:02 | 41.07793 | 11.47389 | 16632 ft | 408 kts | 218° |
| 2026-05-08 09:02 | 41.05563 | 11.45073 | 17091 ft | 407 kts | 218° |
| 2026-05-08 09:03 | 41.03324 | 11.42750 | 17411 ft | 410 kts | 218° |
| 2026-05-08 09:03 | 41.01072 | 11.40413 | 17608 ft | 415 kts | 218° |
| 2026-05-08 09:03 | 40.98792 | 11.38053 | 17969 ft | 415 kts | 219° |
| 2026-05-08 09:03 | 40.96514 | 11.35696 | 18383 ft | 415 kts | 219° |
| 2026-05-08 09:04 | 40.94237 | 11.33341 | 18617 ft | 417 kts | 219° |
| 2026-05-08 09:04 | 40.91961 | 11.30988 | 18876 ft | 419 kts | 219° |
| 2026-05-08 09:04 | 40.89652 | 11.28605 | 19139 ft | 421 kts | 220° |
| 2026-05-08 09:04 | 40.87342 | 11.26224 | 19433 ft | 422 kts | 220° |
| 2026-05-08 09:05 | 40.85024 | 11.23835 | 19700 ft | 423 kts | 220° |
| 2026-05-08 09:05 | 40.82698 | 11.21440 | 19968 ft | 425 kts | 220° |
| 2026-05-08 09:05 | 40.80362 | 11.19040 | 20237 ft | 426 kts | 220° |
| 2026-05-08 09:05 | 40.78016 | 11.16636 | 20556 ft | 426 kts | 220° |
| 2026-05-08 09:06 | 40.75668 | 11.14233 | 20839 ft | 428 kts | 220° |
| 2026-05-08 09:06 | 40.73315 | 11.11826 | 21088 ft | 429 kts | 220° |
| 2026-05-08 09:06 | 40.70948 | 11.09407 | 21365 ft | 431 kts | 220° |
| 2026-05-08 09:06 | 40.68570 | 11.06978 | 21645 ft | 432 kts | 220° |
| 2026-05-08 09:07 | 40.66192 | 11.04551 | 21944 ft | 434 kts | 220° |
| 2026-05-08 09:07 | 40.63793 | 11.02106 | 22199 ft | 436 kts | 220° |
| 2026-05-08 09:07 | 40.61426 | 10.99695 | 22481 ft | 437 kts | 220° |
| 2026-05-08 09:07 | 40.59015 | 10.97243 | 22792 ft | 437 kts | 220° |
| 2026-05-08 09:08 | 40.56597 | 10.94787 | 23114 ft | 438 kts | 220° |
| 2026-05-08 09:08 | 40.54177 | 10.92329 | 23377 ft | 440 kts | 220° |
| 2026-05-08 09:08 | 40.51751 | 10.89867 | 23619 ft | 442 kts | 220° |
| 2026-05-08 09:08 | 40.49316 | 10.87397 | 23855 ft | 443 kts | 220° |
| 2026-05-08 09:09 | 40.46873 | 10.84922 | 24096 ft | 444 kts | 220° |
| 2026-05-08 09:09 | 40.44422 | 10.82442 | 24310 ft | 446 kts | 221° |
| 2026-05-08 09:09 | 40.41962 | 10.79955 | 24534 ft | 447 kts | 221° |
| 2026-05-08 09:09 | 40.39490 | 10.77461 | 24765 ft | 447 kts | 222° |
| 2026-05-08 09:10 | 40.37018 | 10.74970 | 25056 ft | 447 kts | 222° |
| 2026-05-08 09:10 | 40.34548 | 10.72480 | 25293 ft | 448 kts | 223° |
| 2026-05-08 09:10 | 40.32074 | 10.69988 | 25505 ft | 449 kts | 223° |
| 2026-05-08 09:10 | 40.29593 | 10.67491 | 25747 ft | 450 kts | 223° |
| 2026-05-08 09:11 | 40.27102 | 10.64986 | 25988 ft | 451 kts | 223° |
| 2026-05-08 09:11 | 40.24609 | 10.62481 | 26220 ft | 453 kts | 223° |
| 2026-05-08 09:11 | 40.22106 | 10.59971 | 26476 ft | 453 kts | 223° |
| 2026-05-08 09:11 | 40.19598 | 10.57458 | 26707 ft | 455 kts | 223° |
| 2026-05-08 09:12 | 40.17083 | 10.54939 | 26928 ft | 456 kts | 224° |
| 2026-05-08 09:12 | 40.14589 | 10.52443 | 27163 ft | 457 kts | 224° |
| 2026-05-08 09:12 | 40.12060 | 10.49911 | 27402 ft | 458 kts | 224° |
| 2026-05-08 09:12 | 40.09528 | 10.47378 | 27628 ft | 459 kts | 224° |
| 2026-05-08 09:13 | 40.06989 | 10.44840 | 27856 ft | 460 kts | 224° |
| 2026-05-08 09:13 | 40.04438 | 10.42293 | 28079 ft | 461 kts | 224° |
| 2026-05-08 09:13 | 40.01883 | 10.39745 | 28297 ft | 462 kts | 224° |
| 2026-05-08 09:13 | 39.99325 | 10.37196 | 28522 ft | 461 kts | 224° |
| 2026-05-08 09:14 | 39.96774 | 10.34660 | 28794 ft | 461 kts | 224° |
| 2026-05-08 09:14 | 39.94256 | 10.32157 | 29043 ft | 461 kts | 224° |
| 2026-05-08 09:14 | 39.91708 | 10.29627 | 29325 ft | 459 kts | 224° |
| 2026-05-08 09:14 | 39.89168 | 10.27107 | 29625 ft | 458 kts | 224° |
| 2026-05-08 09:15 | 39.86633 | 10.24595 | 29918 ft | 457 kts | 225° |
| 2026-05-08 09:15 | 39.84105 | 10.22091 | 30190 ft | 456 kts | 225° |
| 2026-05-08 09:15 | 39.81576 | 10.19588 | 30410 ft | 455 kts | 224° |
| 2026-05-08 09:15 | 39.79056 | 10.17094 | 30558 ft | 455 kts | 224° |
| 2026-05-08 09:16 | 39.76533 | 10.14601 | 30781 ft | 455 kts | 224° |
| 2026-05-08 09:16 | 39.74015 | 10.12115 | 30986 ft | 455 kts | 224° |
| 2026-05-08 09:16 | 39.71499 | 10.09635 | 31200 ft | 454 kts | 224° |
| 2026-05-08 09:16 | 39.68985 | 10.07159 | 31412 ft | 453 kts | 224° |
| 2026-05-08 09:17 | 39.66465 | 10.04680 | 31603 ft | 453 kts | 224° |
| 2026-05-08 09:17 | 39.63989 | 10.02246 | 31819 ft | 452 kts | 224° |
| 2026-05-08 09:17 | 39.61481 | 9.99782 | 32015 ft | 452 kts | 224° |
| 2026-05-08 09:17 | 39.58981 | 9.97328 | 32188 ft | 451 kts | 224° |
| 2026-05-08 09:18 | 39.56479 | 9.94875 | 32389 ft | 450 kts | 224° |
| 2026-05-08 09:18 | 39.53982 | 9.92428 | 32582 ft | 450 kts | 224° |
| 2026-05-08 09:18 | 39.51477 | 9.89977 | 32763 ft | 449 kts | 224° |
| 2026-05-08 09:18 | 39.48985 | 9.87541 | 32950 ft | 449 kts | 225° |
| 2026-05-08 09:19 | 39.43963 | 9.82629 | 33006 ft | 455 kts | 224° |
| 2026-05-08 09:19 | 39.38943 | 9.77736 | 32973 ft | 454 kts | 224° |
| 2026-05-08 09:20 | 39.33898 | 9.72833 | 33010 ft | 453 kts | 224° |
| 2026-05-08 09:20 | 39.28850 | 9.67933 | 33008 ft | 453 kts | 224° |
| 2026-05-08 09:21 | 39.23805 | 9.63044 | 33014 ft | 453 kts | 224° |
| 2026-05-08 09:23 | 39.06353 | 9.45778 | 33009 ft | 450 kts | 226° |
| 2026-05-08 09:23 | 39.01582 | 9.40561 | 33010 ft | 449 kts | 226° |
| 2026-05-08 09:24 | 38.96816 | 9.35373 | 32991 ft | 449 kts | 226° |
| 2026-05-08 09:24 | 38.92015 | 9.30196 | 33010 ft | 450 kts | 226° |
| 2026-05-08 09:25 | 38.87231 | 9.25066 | 33009 ft | 450 kts | 226° |
| 2026-05-08 09:25 | 38.82411 | 9.19909 | 33013 ft | 450 kts | 226° |
| 2026-05-08 09:26 | 38.77600 | 9.14770 | 33013 ft | 450 kts | 226° |
| 2026-05-08 09:26 | 38.72811 | 9.09661 | 33012 ft | 451 kts | 226° |
| 2026-05-08 09:27 | 38.67990 | 9.04528 | 33013 ft | 450 kts | 226° |
| 2026-05-08 09:27 | 38.63164 | 8.99399 | 33016 ft | 450 kts | 225° |
| 2026-05-08 09:28 | 38.58349 | 8.94290 | 33017 ft | 450 kts | 225° |
| 2026-05-08 09:28 | 38.53560 | 8.89218 | 33006 ft | 450 kts | 225° |
| 2026-05-08 09:29 | 38.48734 | 8.84109 | 33014 ft | 450 kts | 225° |
| 2026-05-08 09:29 | 38.43915 | 8.79011 | 33017 ft | 450 kts | 225° |
| 2026-05-08 09:30 | 38.39083 | 8.73908 | 33015 ft | 450 kts | 225° |
| 2026-05-08 09:30 | 38.34256 | 8.68820 | 33018 ft | 449 kts | 225° |
| 2026-05-08 09:31 | 38.29474 | 8.63788 | 33013 ft | 449 kts | 225° |
| 2026-05-08 09:31 | 38.24625 | 8.58695 | 33019 ft | 449 kts | 225° |
| 2026-05-08 09:32 | 38.19826 | 8.53664 | 33017 ft | 449 kts | 225° |
| 2026-05-08 09:32 | 38.14985 | 8.48612 | 33021 ft | 450 kts | 225° |
| 2026-05-08 09:33 | 38.10109 | 8.43624 | 33021 ft | 450 kts | 224° |
| 2026-05-08 09:33 | 38.05244 | 8.38684 | 33022 ft | 450 kts | 224° |
| 2026-05-08 09:34 | 38.00356 | 8.33721 | 33036 ft | 450 kts | 224° |
| 2026-05-08 09:34 | 37.95496 | 8.28744 | 33024 ft | 448 kts | 225° |
| 2026-05-08 09:35 | 37.90681 | 8.23733 | 33022 ft | 447 kts | 225° |
| 2026-05-08 09:35 | 37.85892 | 8.18746 | 33029 ft | 449 kts | 225° |
| 2026-05-08 09:36 | 37.81056 | 8.13729 | 33012 ft | 449 kts | 225° |
| 2026-05-08 09:36 | 37.76216 | 8.08724 | 33013 ft | 449 kts | 225° |
| 2026-05-08 09:37 | 37.71372 | 8.03726 | 33041 ft | 449 kts | 225° |
| 2026-05-08 09:37 | 37.66523 | 7.98730 | 33026 ft | 449 kts | 224° |
| 2026-05-08 09:38 | 37.61677 | 7.93744 | 33027 ft | 449 kts | 224° |
| 2026-05-08 09:38 | 37.56843 | 7.88781 | 33027 ft | 448 kts | 224° |
| 2026-05-08 09:39 | 37.52037 | 7.83856 | 33028 ft | 448 kts | 224° |
| 2026-05-08 09:39 | 37.47200 | 7.78905 | 33028 ft | 448 kts | 224° |
| 2026-05-08 09:40 | 37.42360 | 7.73960 | 33027 ft | 449 kts | 224° |
| 2026-05-08 09:40 | 37.37511 | 7.69015 | 33028 ft | 449 kts | 224° |
| 2026-05-08 09:41 | 37.32660 | 7.64077 | 33032 ft | 449 kts | 224° |
| 2026-05-08 09:41 | 37.27802 | 7.59140 | 33038 ft | 449 kts | 224° |
| 2026-05-08 09:42 | 37.22957 | 7.54226 | 33006 ft | 446 kts | 224° |
| 2026-05-08 09:42 | 37.18156 | 7.49363 | 33035 ft | 446 kts | 224° |
| 2026-05-08 09:43 | 37.13317 | 7.44469 | 33032 ft | 446 kts | 224° |
| 2026-05-08 09:43 | 37.08473 | 7.39578 | 33032 ft | 446 kts | 224° |
| 2026-05-08 09:44 | 37.04450 | 7.35524 | 33032 ft | 447 kts | 224° |
| 2026-05-08 09:44 | 36.99609 | 7.30652 | 33020 ft | 446 kts | 223° |
| 2026-05-08 09:45 | 36.94749 | 7.25768 | 33026 ft | 448 kts | 223° |
| 2026-05-08 09:45 | 36.89876 | 7.20883 | 33023 ft | 448 kts | 223° |
| 2026-05-08 09:46 | 36.85010 | 7.16010 | 33026 ft | 448 kts | 223° |
| 2026-05-08 09:46 | 36.80148 | 7.11151 | 33020 ft | 448 kts | 223° |
| 2026-05-08 09:47 | 36.75295 | 7.06307 | 33012 ft | 449 kts | 223° |
| 2026-05-08 09:47 | 36.70401 | 7.01432 | 33020 ft | 450 kts | 223° |
| 2026-05-08 09:48 | 36.65538 | 6.96595 | 33019 ft | 450 kts | 223° |
| 2026-05-08 09:48 | 36.60643 | 6.91736 | 33024 ft | 450 kts | 223° |
| 2026-05-08 09:49 | 36.55746 | 6.86882 | 33022 ft | 450 kts | 223° |
| 2026-05-08 09:49 | 36.50833 | 6.82018 | 33032 ft | 450 kts | 223° |
| 2026-05-08 09:50 | 36.45969 | 6.77213 | 33035 ft | 449 kts | 223° |
| 2026-05-08 09:50 | 36.41070 | 6.72383 | 33040 ft | 449 kts | 223° |
| 2026-05-08 09:51 | 36.36164 | 6.67554 | 33049 ft | 449 kts | 223° |
| 2026-05-08 09:51 | 36.31241 | 6.62768 | 33021 ft | 451 kts | 220° |
| 2026-05-08 09:52 | 36.25724 | 6.58995 | 33037 ft | 460 kts | 210° |
| 2026-05-08 09:52 | 36.19800 | 6.55878 | 33028 ft | 462 kts | 208° |
| 2026-05-08 09:53 | 36.13836 | 6.52891 | 33017 ft | 462 kts | 208° |
| 2026-05-08 09:53 | 36.07919 | 6.49924 | 33011 ft | 462 kts | 208° |
| 2026-05-08 09:54 | 36.01959 | 6.46912 | 33017 ft | 462 kts | 208° |
| 2026-05-08 09:54 | 35.96007 | 6.43896 | 33018 ft | 462 kts | 208° |
| 2026-05-08 09:55 | 35.90042 | 6.40879 | 33018 ft | 462 kts | 208° |
| 2026-05-08 09:55 | 35.84127 | 6.37893 | 33075 ft | 462 kts | 207° |
| 2026-05-08 09:56 | 35.78179 | 6.34895 | 33074 ft | 462 kts | 208° |
| 2026-05-08 09:56 | 35.72337 | 6.31662 | 33074 ft | 459 kts | 211° |
| 2026-05-08 09:57 | 35.63715 | 6.26497 | 33066 ft | 459 kts | 211° |
| 2026-05-08 09:57 | 35.57964 | 6.23077 | 33037 ft | 459 kts | 211° |
| 2026-05-08 09:58 | 35.52170 | 6.19665 | 33037 ft | 463 kts | 211° |
| 2026-05-08 09:58 | 35.46390 | 6.16279 | 33021 ft | 463 kts | 210° |
| 2026-05-08 09:59 | 35.40566 | 6.12877 | 33016 ft | 463 kts | 211° |
| 2026-05-08 09:59 | 35.34753 | 6.09481 | 32991 ft | 463 kts | 210° |
| 2026-05-08 10:00 | 35.28928 | 6.06082 | 33006 ft | 462 kts | 210° |
| 2026-05-08 10:00 | 35.23131 | 6.02706 | 33006 ft | 461 kts | 210° |
| 2026-05-08 10:01 | 35.17329 | 5.99330 | 32996 ft | 461 kts | 210° |
| 2026-05-08 10:01 | 35.11558 | 5.95978 | 32996 ft | 462 kts | 210° |
| 2026-05-08 10:02 | 35.05737 | 5.92603 | 32979 ft | 463 kts | 210° |
| 2026-05-08 10:02 | 34.99911 | 5.89231 | 32972 ft | 463 kts | 210° |
| 2026-05-08 10:03 | 34.94111 | 5.85880 | 32969 ft | 464 kts | 210° |
| 2026-05-08 10:03 | 34.88282 | 5.82518 | 32966 ft | 464 kts | 210° |
| 2026-05-08 10:04 | 34.82450 | 5.79158 | 32963 ft | 464 kts | 210° |
| 2026-05-08 10:04 | 34.76748 | 5.75519 | 32967 ft | 460 kts | 218° |
| 2026-05-08 10:05 | 34.71448 | 5.71168 | 32966 ft | 459 kts | 219° |
| 2026-05-08 10:05 | 34.66238 | 5.66708 | 32966 ft | 457 kts | 220° |
| 2026-05-08 10:06 | 34.61079 | 5.62277 | 32974 ft | 456 kts | 220° |
| 2026-05-08 10:06 | 34.55870 | 5.57829 | 32970 ft | 458 kts | 220° |
| 2026-05-08 10:07 | 34.50646 | 5.53388 | 32986 ft | 458 kts | 219° |
| 2026-05-08 10:07 | 34.45439 | 5.48972 | 32967 ft | 458 kts | 219° |
| 2026-05-08 10:08 | 34.40205 | 5.44540 | 32974 ft | 458 kts | 219° |
| 2026-05-08 10:08 | 34.34983 | 5.40124 | 32975 ft | 458 kts | 219° |
| 2026-05-08 10:09 | 34.29735 | 5.35692 | 32973 ft | 460 kts | 219° |
| 2026-05-08 10:09 | 34.24482 | 5.31264 | 32990 ft | 459 kts | 219° |
| 2026-05-08 10:10 | 34.19246 | 5.26858 | 32986 ft | 458 kts | 219° |
| 2026-05-08 10:10 | 34.14055 | 5.22495 | 32989 ft | 457 kts | 219° |
| 2026-05-08 10:11 | 34.08823 | 5.18103 | 32978 ft | 458 kts | 219° |
| 2026-05-08 10:11 | 34.03578 | 5.13708 | 32986 ft | 459 kts | 219° |
| 2026-05-08 10:12 | 33.98333 | 5.09319 | 32988 ft | 459 kts | 219° |
| 2026-05-08 10:12 | 33.93072 | 5.04926 | 32988 ft | 459 kts | 219° |
| 2026-05-08 10:13 | 33.87847 | 5.00568 | 32987 ft | 459 kts | 219° |
| 2026-05-08 10:13 | 33.82586 | 4.96208 | 32985 ft | 460 kts | 219° |
| 2026-05-08 10:14 | 33.77318 | 4.91866 | 32984 ft | 458 kts | 219° |
| 2026-05-08 10:14 | 33.72095 | 4.87570 | 32988 ft | 457 kts | 219° |
| 2026-05-08 10:15 | 33.66847 | 4.83255 | 32985 ft | 457 kts | 219° |
| 2026-05-08 10:15 | 33.61584 | 4.78933 | 32986 ft | 457 kts | 219° |